createdAt,value
2022-09-17T00:01:29.788Z,5.30
2022-09-17T00:04:00.465Z,3.17
2022-09-17T00:06:28.030Z,2.88
2022-09-17T00:08:55.514Z,10.55
2022-09-17T00:11:29.380Z,2.22
2022-09-17T00:13:59.193Z,4.85
2022-09-17T00:16:37.269Z,5.00
2022-09-17T00:19:06.416Z,3.03
2022-09-17T00:21:33.576Z,2.28
2022-09-17T00:24:03.988Z,3.00
2022-09-17T00:26:32.374Z,3.28
2022-09-17T00:29:00.164Z,5.28
2022-09-17T00:31:28.562Z,6.47
2022-09-17T00:33:56.425Z,4.97
2022-09-17T00:36:23.880Z,2.33
2022-09-17T00:38:52.532Z,3.20
2022-09-17T00:41:21.168Z,3.47
2022-09-17T00:43:51.130Z,3.80
2022-09-17T00:46:23.273Z,2.13
2022-09-17T00:48:54.323Z,3.63
2022-09-17T00:51:29.015Z,2.13
2022-09-17T00:53:56.874Z,3.22
2022-09-17T00:56:27.966Z,4.05
2022-09-17T00:58:55.901Z,3.10
2022-09-17T01:01:24.004Z,2.35
2022-09-17T01:03:51.211Z,4.95
2022-09-17T01:06:57.585Z,2.53
2022-09-17T01:09:33.458Z,2.58
2022-09-17T01:12:06.933Z,4.63
2022-09-17T01:14:37.170Z,3.67
2022-09-17T01:17:30.270Z,2.67
2022-09-17T01:20:45.566Z,1.67
2022-09-17T01:23:53.747Z,2.17
2022-09-17T01:26:33.655Z,2.13
2022-09-17T01:29:20.942Z,2.75
2022-09-17T01:31:54.419Z,2.50
2022-09-17T01:34:53.946Z,2.38
2022-09-17T01:37:56.439Z,0.75
2022-09-17T01:42:59.758Z,1.95
2022-09-17T01:45:42.459Z,4.90
2022-09-17T01:48:17.624Z,5.78
2022-09-17T01:50:55.829Z,3.35
2022-09-17T01:53:29.104Z,2.08
2022-09-17T01:56:00.026Z,1.52
2022-09-17T01:58:32.241Z,2.63
2022-09-17T02:01:04.065Z,3.05
2022-09-17T02:03:37.409Z,0.98
2022-09-17T02:06:18.569Z,1.75
2022-09-17T02:08:51.965Z,4.35
2022-09-17T02:11:19.980Z,2.15
2022-09-17T02:13:54.577Z,1.48
2022-09-17T02:16:27.751Z,4.90
2022-09-17T02:19:02.691Z,2.55
2022-09-17T02:21:40.167Z,3.33
2022-09-17T02:24:17.907Z,3.00
2022-09-17T02:26:50.507Z,0.80
2022-09-17T02:29:27.203Z,1.10
2022-09-17T02:31:54.467Z,3.35
2022-09-17T02:34:22.482Z,4.05
2022-09-17T02:36:49.634Z,6.75
2022-09-17T02:39:17.669Z,2.80
2022-09-17T02:41:59.859Z,4.63
2022-09-17T02:47:40.139Z,2.03
2022-09-17T02:50:22.146Z,2.08
2022-09-17T02:52:57.988Z,1.63
2022-09-17T02:55:34.440Z,5.03
2022-09-17T02:58:09.701Z,2.78
2022-09-17T03:00:37.313Z,3.75
2022-09-17T03:03:13.903Z,4.18
2022-09-17T03:05:42.994Z,3.10
2022-09-17T03:08:14.464Z,2.47
2022-09-17T03:10:41.722Z,4.80
2022-09-17T03:13:08.914Z,6.72
2022-09-17T03:15:36.319Z,3.42
2022-09-17T03:18:03.667Z,4.13
2022-09-17T03:20:30.853Z,2.60
2022-09-17T03:22:58.211Z,5.15
2022-09-17T03:25:25.363Z,3.38
2022-09-17T03:27:52.564Z,2.80
2022-09-17T03:30:20.234Z,2.70
2022-09-17T03:32:47.503Z,3.75
2022-09-17T03:35:14.689Z,4.40
2022-09-17T03:37:43.170Z,4.65
2022-09-17T03:40:10.629Z,2.80
2022-09-17T03:42:37.879Z,4.28
2022-09-17T03:45:05.757Z,2.88
2022-09-17T03:47:32.899Z,5.00
2022-09-17T03:50:00.170Z,2.35
2022-09-17T03:52:27.544Z,3.38
2022-09-17T03:54:54.730Z,3.40
2022-09-17T03:57:22.926Z,1.13
2022-09-17T03:59:50.302Z,4.13
2022-09-17T04:02:17.507Z,2.70
2022-09-17T04:04:44.891Z,2.45
2022-09-17T04:07:12.276Z,2.72
2022-09-17T04:09:39.817Z,4.13
2022-09-17T04:12:07.140Z,3.58
2022-09-17T04:14:34.580Z,1.30
2022-09-17T04:17:01.759Z,3.22
2022-09-17T04:19:28.966Z,1.70
2022-09-17T04:21:56.321Z,3.28
2022-09-17T04:24:23.496Z,4.75
2022-09-17T04:26:50.646Z,2.08
2022-09-17T04:29:18.350Z,4.97
2022-09-17T04:31:45.873Z,3.63
2022-09-17T04:34:13.163Z,3.13
2022-09-17T04:36:40.520Z,3.30
2022-09-17T04:39:08.779Z,3.38
2022-09-17T04:41:35.933Z,3.78
2022-09-17T04:44:03.279Z,4.20
2022-09-17T04:46:30.510Z,3.47
2022-09-17T04:48:57.792Z,1.83
2022-09-17T04:51:25.475Z,2.05
2022-09-17T04:53:52.712Z,4.22
2022-09-17T04:56:20.536Z,2.70
2022-09-17T04:58:47.945Z,2.80
2022-09-17T05:01:15.338Z,3.78
2022-09-17T05:03:42.597Z,2.58
2022-09-17T05:06:10.064Z,1.67
2022-09-17T05:08:37.588Z,3.47
2022-09-17T05:11:05.171Z,2.65
2022-09-17T05:13:32.601Z,4.03
2022-09-17T05:15:59.784Z,2.53
2022-09-17T05:18:26.984Z,2.00
2022-09-17T05:20:54.388Z,2.67
2022-09-17T05:23:21.922Z,2.33
2022-09-17T05:25:49.202Z,6.45
2022-09-17T05:28:16.695Z,2.08
2022-09-17T05:30:43.890Z,3.80
2022-09-17T05:33:11.071Z,3.83
2022-09-17T05:35:38.422Z,2.88
2022-09-17T05:38:07.679Z,3.42
2022-09-17T05:40:35.358Z,4.10
2022-09-17T05:43:06.270Z,1.67
2022-09-17T05:45:34.856Z,2.13
2022-09-17T05:48:03.262Z,2.65
2022-09-17T05:50:31.527Z,1.92
2022-09-17T05:53:05.694Z,0.98
2022-09-17T05:55:35.018Z,2.80
2022-09-17T05:58:12.570Z,2.75
2022-09-17T06:00:41.256Z,2.13
2022-09-17T06:03:13.011Z,1.05
2022-09-17T06:05:40.972Z,2.42
2022-09-17T06:08:09.332Z,1.15
2022-09-17T06:10:37.637Z,1.23
2022-09-17T06:13:05.144Z,1.65
2022-09-17T06:15:32.507Z,1.60
2022-09-17T06:17:59.732Z,1.83
2022-09-17T06:20:27.051Z,2.85
2022-09-17T06:22:59.387Z,4.38
2022-09-17T06:25:27.082Z,2.47
2022-09-17T06:27:54.254Z,1.70
2022-09-17T06:30:21.656Z,2.88
2022-09-17T06:32:48.980Z,1.92
2022-09-17T06:35:16.185Z,2.05
2022-09-17T06:37:43.634Z,2.50
2022-09-17T06:40:11.261Z,4.35
2022-09-17T06:42:38.562Z,2.28
2022-09-17T06:45:10.161Z,2.53
2022-09-17T06:47:39.306Z,2.20
2022-09-17T06:50:06.889Z,2.60
2022-09-17T06:52:34.325Z,3.55
2022-09-17T06:55:01.473Z,4.78
2022-09-17T06:57:28.904Z,2.38
2022-09-17T06:59:56.078Z,1.23
2022-09-17T07:02:23.260Z,1.95
2022-09-17T07:04:50.620Z,1.83
2022-09-17T07:07:17.877Z,1.65
2022-09-17T07:09:45.057Z,5.53
2022-09-17T07:12:12.622Z,3.15
2022-09-17T07:14:39.740Z,3.17
2022-09-17T07:17:07.376Z,1.48
2022-09-17T07:19:34.925Z,0.93
2022-09-17T07:22:02.149Z,2.60
2022-09-17T07:24:32.754Z,1.60
2022-09-17T07:27:01.773Z,2.67
2022-09-17T07:29:29.015Z,2.60
2022-09-17T07:31:56.430Z,1.00
2022-09-17T07:34:23.965Z,0.98
2022-09-17T07:36:51.098Z,2.25
2022-09-17T07:39:18.239Z,1.63
2022-09-17T07:41:45.628Z,2.28
2022-09-17T07:44:12.822Z,1.17
2022-09-17T07:46:40.117Z,1.73
2022-09-17T07:49:07.565Z,1.60
2022-09-17T07:51:34.686Z,1.52
2022-09-17T07:54:02.472Z,3.40
2022-09-17T07:56:30.522Z,1.13
2022-09-17T07:58:57.717Z,1.48
2022-09-17T08:01:25.822Z,2.40
2022-09-17T08:03:54.624Z,1.13
2022-09-17T08:06:26.130Z,0.75
2022-09-17T08:08:53.656Z,1.25
2022-09-17T08:11:55.210Z,1.38
2022-09-17T08:14:12.747Z,3.13
2022-09-17T08:16:40.750Z,2.03
2022-09-17T08:19:10.627Z,2.08
2022-09-17T08:21:38.136Z,1.38
2022-09-17T08:24:05.718Z,1.40
2022-09-17T08:26:32.895Z,1.60
2022-09-17T08:29:00.225Z,1.05
2022-09-17T08:31:30.300Z,4.32
2022-09-17T08:33:57.955Z,1.45
2022-09-17T08:36:26.617Z,4.75
2022-09-17T08:38:55.659Z,1.88
2022-09-17T08:41:42.489Z,1.00
2022-09-17T08:44:15.827Z,1.60
2022-09-17T08:46:47.741Z,1.98
2022-09-17T08:49:33.209Z,2.00
2022-09-17T08:52:22.344Z,0.98
2022-09-17T08:55:05.341Z,3.13
2022-09-17T08:57:59.459Z,1.90
2022-09-17T09:00:39.103Z,2.03
2022-09-17T09:03:23.876Z,2.80
2022-09-17T09:05:56.506Z,1.75
2022-09-17T09:09:08.745Z,1.45
2022-09-17T09:11:36.512Z,2.17
2022-09-17T09:14:10.206Z,3.10
2022-09-17T09:16:41.620Z,2.08
2022-09-17T09:19:27.045Z,1.38
2022-09-17T09:22:30.425Z,1.48
2022-09-17T09:25:23.279Z,2.80
2022-09-17T09:28:03.299Z,2.92
2022-09-17T09:31:12.329Z,1.40
2022-09-17T09:33:47.602Z,2.75
2022-09-17T09:36:21.702Z,1.90
2022-09-17T09:39:01.824Z,2.20
2022-09-17T09:41:29.129Z,0.70
2022-09-17T09:44:05.310Z,1.05
2022-09-17T09:47:07.335Z,1.27
2022-09-17T09:49:34.654Z,2.13
2022-09-17T09:52:07.804Z,1.42
2022-09-17T09:54:51.810Z,4.07
2022-09-17T09:57:32.992Z,0.90
2022-09-17T10:00:31.261Z,2.08
2022-09-17T10:03:16.930Z,2.15
2022-09-17T10:06:02.824Z,2.08
2022-09-17T10:08:33.064Z,2.97
2022-09-17T10:11:06.771Z,2.03
2022-09-17T10:13:36.732Z,2.47
2022-09-17T10:16:25.394Z,2.25
2022-09-17T10:19:14.309Z,1.02
2022-09-17T10:21:43.123Z,2.13
2022-09-17T10:24:27.096Z,2.20
2022-09-17T10:27:14.107Z,2.75
2022-09-17T10:29:51.124Z,0.43
2022-09-17T10:32:21.441Z,1.02
2022-09-17T10:35:04.508Z,2.47
2022-09-17T10:37:49.791Z,0.70
2022-09-17T10:40:20.154Z,2.05
2022-09-17T10:43:09.073Z,1.83
2022-09-17T10:45:39.839Z,0.65
2022-09-17T10:48:22.924Z,0.93
2022-09-17T10:50:53.100Z,1.25
2022-09-17T10:53:23.371Z,0.57
2022-09-17T10:56:02.645Z,1.20
2022-09-17T10:58:51.346Z,1.13
2022-09-17T11:01:47.430Z,2.90
2022-09-17T11:04:23.829Z,1.38
2022-09-17T11:06:56.469Z,2.13
2022-09-17T11:09:45.382Z,0.60
2022-09-17T11:12:20.420Z,1.60
2022-09-17T11:14:56.952Z,0.50
2022-09-17T11:17:39.036Z,1.30
2022-09-17T11:20:16.171Z,0.75
2022-09-17T11:23:01.980Z,1.48
2022-09-17T11:25:46.255Z,0.73
2022-09-17T11:28:41.409Z,1.25
2022-09-17T11:31:23.233Z,1.40
2022-09-17T11:34:05.335Z,0.68
2022-09-17T11:36:55.366Z,2.80
2022-09-17T11:39:45.321Z,1.08
2022-09-17T11:42:18.203Z,1.30
2022-09-17T11:44:52.962Z,1.17
2022-09-17T11:47:30.806Z,5.35
2022-09-17T11:50:07.718Z,1.50
2022-09-17T11:52:44.438Z,1.98
2022-09-17T11:55:43.733Z,2.85
2022-09-17T11:58:36.958Z,1.55
2022-09-17T12:01:11.503Z,3.83
2022-09-17T12:04:26.900Z,2.17
2022-09-17T12:07:02.593Z,1.30
2022-09-17T12:09:36.826Z,3.88
2022-09-17T12:12:26.297Z,1.40
2022-09-17T12:15:22.660Z,3.92
2022-09-17T12:18:20.651Z,0.75
2022-09-17T12:20:52.022Z,2.25
2022-09-17T12:23:31.334Z,0.88
2022-09-17T12:26:19.792Z,0.85
2022-09-17T12:28:54.591Z,0.30
2022-09-17T12:31:32.886Z,0.40
2022-09-17T12:34:42.689Z,1.88
2022-09-17T12:37:33.155Z,3.10
2022-09-17T12:40:29.683Z,1.50
2022-09-17T12:43:18.798Z,1.17
2022-09-17T12:46:15.087Z,1.02
2022-09-17T12:48:54.306Z,1.05
2022-09-17T12:51:40.036Z,1.00
2022-09-17T12:54:26.118Z,1.00
2022-09-17T12:57:05.357Z,0.45
2022-09-17T12:59:36.155Z,2.38
2022-09-17T13:02:43.886Z,3.53
2022-09-17T13:05:35.737Z,0.30
2022-09-17T13:11:26.798Z,0.65
2022-09-17T13:13:56.937Z,0.60
2022-09-17T13:16:46.689Z,1.98
2022-09-17T13:19:39.567Z,1.88
2022-09-17T13:22:19.404Z,1.27
2022-09-17T13:24:49.114Z,2.33
2022-09-17T13:27:23.539Z,1.38
2022-09-17T13:29:53.755Z,1.92
2022-09-17T13:32:33.330Z,1.40
2022-09-17T13:35:06.832Z,0.93
2022-09-17T13:37:36.497Z,0.75
2022-09-17T13:40:04.678Z,1.40
2022-09-17T13:42:48.229Z,2.63
2022-09-17T13:45:18.081Z,1.25
2022-09-17T13:47:58.727Z,1.10
2022-09-17T13:50:32.268Z,1.15
2022-09-17T13:53:07.363Z,2.13
2022-09-17T13:55:53.274Z,0.60
2022-09-17T13:58:23.302Z,0.68
2022-09-17T14:00:58.213Z,0.55
2022-09-17T14:03:31.557Z,1.63
2022-09-17T14:06:19.591Z,2.22
2022-09-17T14:08:47.416Z,1.65
2022-09-17T14:11:24.169Z,0.93
2022-09-17T14:14:14.446Z,2.72
2022-09-17T14:16:47.790Z,3.20
2022-09-17T14:19:51.474Z,1.70
2022-09-17T14:22:29.264Z,3.40
2022-09-17T14:24:56.534Z,1.45
2022-09-17T14:27:45.525Z,1.88
2022-09-17T14:30:18.500Z,2.03
2022-09-17T14:32:54.053Z,0.88
2022-09-17T14:35:40.777Z,2.17
2022-09-17T14:38:20.933Z,6.20
2022-09-17T14:40:57.770Z,3.55
2022-09-17T14:43:54.137Z,1.33
2022-09-17T14:46:33.207Z,0.98
2022-09-17T14:49:23.024Z,1.15
2022-09-17T14:51:52.346Z,2.05
2022-09-17T14:54:29.459Z,0.95
2022-09-17T14:57:08.604Z,1.67
2022-09-17T14:59:54.901Z,2.80
2022-09-17T15:02:44.938Z,1.98
2022-09-17T15:05:28.302Z,0.40
2022-09-17T15:08:10.426Z,0.60
2022-09-17T15:10:49.047Z,2.17
2022-09-17T15:13:25.443Z,2.13
2022-09-17T15:16:01.953Z,1.80
2022-09-17T15:18:52.478Z,3.88
2022-09-17T15:21:41.232Z,1.15
2022-09-17T15:24:13.739Z,1.30
2022-09-17T15:26:43.666Z,1.10
2022-09-17T15:29:15.013Z,3.17
2022-09-17T15:31:42.534Z,2.85
2022-09-17T15:34:12.933Z,3.40
2022-09-17T15:36:40.173Z,2.05
2022-09-17T15:39:30.448Z,1.35
2022-09-17T15:41:57.971Z,2.40
2022-09-17T15:44:30.411Z,1.70
2022-09-17T15:47:36.243Z,1.85
2022-09-17T15:50:34.471Z,2.55
2022-09-17T15:53:10.713Z,1.52
2022-09-17T15:55:44.675Z,2.47
2022-09-17T15:58:36.409Z,0.52
2022-09-17T16:03:46.380Z,2.28
2022-09-17T16:06:22.579Z,2.95
2022-09-17T16:08:57.558Z,2.88
2022-09-17T16:11:30.670Z,1.30
2022-09-17T16:13:59.938Z,3.45
2022-09-17T16:16:33.580Z,2.30
2022-09-17T16:19:01.770Z,6.57
2022-09-17T16:21:29.298Z,5.28
2022-09-17T16:23:58.206Z,4.75
2022-09-17T16:26:31.505Z,2.50
2022-09-17T16:29:05.069Z,2.25
2022-09-17T16:31:33.202Z,2.35
2022-09-17T16:34:01.035Z,3.10
2022-09-17T16:36:31.203Z,2.40
2022-09-17T16:38:59.625Z,2.00
2022-09-17T16:41:27.452Z,2.47
2022-09-17T16:43:54.665Z,1.98
2022-09-17T16:46:21.914Z,2.63
2022-09-17T16:48:52.371Z,2.88
2022-09-17T16:51:19.849Z,1.40
2022-09-17T16:53:47.146Z,4.88
2022-09-17T16:56:15.741Z,2.83
2022-09-17T16:58:43.170Z,1.88
2022-09-17T17:01:15.483Z,1.88
2022-09-17T17:03:45.578Z,4.43
2022-09-17T17:06:17.479Z,3.72
2022-09-17T17:08:45.043Z,3.97
2022-09-17T17:11:12.473Z,4.95
2022-09-17T17:13:41.520Z,2.92
2022-09-17T17:16:11.689Z,5.32
2022-09-17T17:18:39.038Z,4.20
2022-09-17T17:21:08.103Z,3.92
2022-09-17T17:23:35.696Z,4.00
2022-09-17T17:26:03.807Z,7.40
2022-09-17T17:28:32.705Z,4.53
2022-09-17T17:31:00.129Z,3.53
2022-09-17T17:33:27.369Z,3.40
2022-09-17T17:35:54.538Z,4.82
2022-09-17T17:38:21.935Z,4.30
2022-09-17T17:40:49.067Z,4.82
2022-09-17T17:43:16.648Z,5.07
2022-09-17T17:45:44.038Z,5.40
2022-09-17T17:48:11.175Z,4.75
2022-09-17T17:50:38.344Z,12.45
2022-09-17T17:53:05.739Z,5.65
2022-09-17T17:55:32.894Z,6.20
2022-09-17T17:58:01.651Z,5.03
2022-09-17T18:00:29.388Z,7.30
2022-09-17T18:02:57.070Z,5.93
2022-09-17T18:05:24.354Z,4.53
2022-09-17T18:07:51.849Z,5.10
2022-09-17T18:10:19.830Z,5.85
2022-09-17T18:12:50.687Z,6.45
2022-09-17T18:15:18.322Z,7.03
2022-09-17T18:17:48.106Z,5.90
2022-09-17T18:20:15.627Z,8.20
2022-09-17T18:22:43.026Z,8.02
2022-09-17T18:25:10.561Z,6.47
2022-09-17T18:27:37.679Z,6.10
2022-09-17T18:30:05.652Z,6.75
2022-09-17T18:32:32.950Z,7.47
2022-09-17T18:35:00.118Z,11.13
2022-09-17T18:37:29.177Z,8.75
2022-09-17T18:39:59.087Z,12.45
2022-09-17T18:42:26.738Z,16.02
2022-09-17T18:44:54.175Z,15.05
2022-09-17T18:47:21.358Z,15.90
2022-09-17T18:49:48.705Z,11.93
2022-09-17T18:52:16.274Z,11.82
2022-09-17T18:54:46.076Z,13.88
2022-09-17T18:57:13.632Z,9.25
2022-09-17T18:59:41.145Z,18.10
2022-09-17T19:02:12.103Z,10.85
2022-09-17T19:04:39.494Z,14.70
2022-09-17T19:07:07.547Z,10.32
2022-09-17T19:09:34.837Z,10.00
2022-09-17T19:12:02.503Z,13.60
2022-09-17T19:14:30.072Z,11.68
2022-09-17T19:16:57.500Z,11.38
2022-09-17T19:19:24.743Z,9.68
2022-09-17T19:21:52.298Z,11.13
2022-09-17T19:24:19.489Z,8.55
2022-09-17T19:26:50.838Z,8.50
2022-09-17T19:31:45.751Z,9.82
2022-09-17T19:34:13.268Z,13.10
2022-09-17T19:36:40.711Z,10.70
2022-09-17T19:39:08.154Z,10.90
2022-09-17T19:41:36.683Z,10.73
2022-09-17T19:44:04.304Z,7.40
2022-09-17T19:46:32.531Z,10.75
2022-09-17T19:49:00.668Z,10.38
2022-09-17T19:51:29.769Z,9.35
2022-09-17T19:53:57.386Z,9.73
2022-09-17T19:56:27.125Z,11.02
2022-09-17T19:58:55.259Z,14.32
2022-09-17T20:01:22.740Z,14.70
2022-09-17T20:03:50.046Z,13.68
2022-09-17T20:06:20.799Z,11.02
2022-09-17T20:08:50.333Z,11.77
2022-09-17T20:11:21.782Z,11.27
2022-09-17T20:13:49.368Z,10.07
2022-09-17T20:16:20.174Z,10.95
2022-09-17T20:18:49.160Z,12.70
2022-09-17T20:21:25.677Z,12.65
2022-09-17T20:23:53.597Z,9.82
2022-09-17T20:26:21.949Z,9.45
2022-09-17T20:28:50.507Z,15.02
2022-09-17T20:31:20.592Z,10.68
2022-09-17T20:33:50.972Z,13.18
2022-09-17T20:36:20.070Z,11.25
2022-09-17T20:41:38.078Z,9.35
2022-09-17T20:44:07.102Z,12.13
2022-09-17T20:46:34.657Z,10.23
2022-09-17T20:49:02.128Z,12.57
2022-09-17T20:51:30.593Z,12.07
2022-09-17T20:53:58.275Z,9.15
2022-09-17T20:56:31.778Z,9.52
2022-09-17T20:59:08.737Z,12.70
2022-09-17T21:01:37.999Z,11.20
2022-09-17T21:04:08.155Z,11.55
2022-09-17T21:06:43.692Z,14.50
2022-09-17T21:09:15.727Z,11.85
2022-09-17T21:14:18.765Z,9.77
2022-09-17T21:19:16.249Z,9.80
2022-09-17T21:21:44.796Z,12.57
2022-09-17T21:24:12.461Z,10.07
2022-09-17T21:26:39.877Z,12.20
2022-09-17T21:29:08.162Z,13.05
2022-09-17T21:31:37.186Z,10.77
2022-09-17T21:34:07.110Z,12.43
2022-09-17T21:36:37.087Z,14.02
2022-09-17T21:39:16.210Z,12.77
2022-09-17T21:41:45.437Z,14.25
2022-09-17T21:44:13.470Z,8.82
2022-09-17T21:46:41.815Z,15.30
2022-09-17T21:49:09.740Z,10.55
2022-09-17T21:51:39.967Z,12.35
2022-09-17T21:54:12.372Z,10.38
2022-09-17T21:56:40.114Z,11.73
2022-09-17T21:59:10.002Z,14.05
2022-09-17T22:01:40.576Z,8.43
2022-09-17T22:04:19.884Z,7.25
2022-09-17T22:06:49.653Z,10.15
2022-09-17T22:09:23.294Z,7.50
2022-09-17T22:11:52.025Z,9.00
2022-09-17T22:14:21.557Z,10.30
2022-09-17T22:16:53.014Z,10.07
2022-09-17T22:19:22.038Z,8.32
2022-09-17T22:21:51.450Z,9.55
2022-09-17T22:24:20.442Z,10.27
2022-09-17T22:26:55.774Z,9.77
2022-09-17T22:29:24.818Z,9.30
2022-09-17T22:31:52.181Z,10.50
2022-09-17T22:34:22.956Z,9.38
2022-09-17T22:36:50.606Z,8.75
2022-09-17T22:39:23.463Z,8.90
2022-09-17T22:41:51.221Z,12.30
2022-09-17T22:44:19.692Z,6.88
2022-09-17T22:46:49.878Z,8.50
2022-09-17T22:49:18.226Z,6.85
2022-09-17T22:51:47.252Z,7.55
2022-09-17T22:54:16.774Z,12.23
2022-09-17T22:56:45.129Z,10.18
2022-09-17T22:59:12.818Z,12.20
2022-09-17T23:01:41.019Z,8.57
2022-09-17T23:04:08.280Z,6.25
2022-09-17T23:06:42.311Z,9.43
2022-09-17T23:09:12.886Z,8.73
2022-09-17T23:11:40.372Z,8.82
2022-09-17T23:14:10.295Z,9.00
2022-09-17T23:16:43.209Z,10.43
2022-09-17T23:19:12.245Z,9.18
2022-09-17T23:21:40.007Z,7.97
2022-09-17T23:24:07.921Z,8.02
2022-09-17T23:26:35.794Z,10.60
2022-09-17T23:29:05.189Z,8.52
2022-09-17T23:31:35.176Z,10.63
2022-09-17T23:34:04.102Z,5.20
2022-09-17T23:36:35.142Z,12.25
2022-09-17T23:39:03.636Z,11.27
2022-09-17T23:41:33.071Z,8.80
2022-09-17T23:44:02.588Z,7.95
2022-09-17T23:46:32.400Z,7.53
2022-09-17T23:49:00.223Z,6.30
2022-09-17T23:51:31.046Z,6.40
2022-09-17T23:53:59.174Z,7.85
2022-09-17T23:56:28.696Z,9.45
2022-09-17T23:58:59.097Z,6.55
